Overseas Houston — WWAA — position and weather

sailwx.info

Track history (hours):
 
Tides and Currents Weather Stations Pressure Air Temp Water Temp Dewpoint Dewpoint Depression Visibility Wind Speed Wind Dir Waves Ship Positions

Overseas Houston

Owner: ASC Leasing I, Inc., Kennett Square, PA. More information available from US FCC via Universal Licensing System and Coast Guard Vessel Documentation Center.

Last reported at 2017-Nov-18 13:32 UTC. Time now 2017-Nov-21 12:14 UTC.
Position N 29°44' W 095°13'.

Type: Tanker. MMSI: 367109000.

Date/timePositionNaut miles runAvg speedWind from/ knotsBaromVisibWave heightAir tempDewpointWater temp
2017-Nov-18 13:32N 29°44' W 095°13'0 0.0
2017-Nov-18 13:29N 29°44' W 095°13'0 0.2
2017-Nov-18 13:00N 29°44' W 095°13'3 3.9
2017-Nov-18 12:11N 29°45' W 095°10'1 7.3
2017-Nov-18 12:00N 29°44' W 095°09'3 6.4
2017-Nov-18 11:29N 29°46' W 095°05'4 7.3
2017-Nov-18 11:00N 29°44' W 095°02'4 7.8
2017-Nov-18 10:30N 29°41' W 094°59'612.6
2017-Nov-18 10:00N 29°35' W 094°56'713.2
2017-Nov-18 09:30N 29°30' W 094°52'713.6
2017-Nov-18 09:00N 29°23' W 094°49'  
Track history (hours):
 
Tides and Currents Weather Stations Pressure Air Temp Water Temp Dewpoint Dewpoint Depression Visibility Wind Speed Wind Dir Waves Ship Positions

Overseas Houston

Owner: ASC Leasing I, Inc., Kennett Square, PA. More information available from US FCC via Universal Licensing System and Coast Guard Vessel Documentation Center.

Last reported at 2017-Nov-18 13:32 UTC. Time now 2017-Nov-21 12:14 UTC.
Position N 29°44' W 095°13'.

Type: Tanker. MMSI: 367109000.

Date/timePositionNaut miles runAvg speedWind from/ knotsBaromVisibWave heightAir tempDewpointWater temp
2017-Nov-18 13:32N 29°44' W 095°13'0 0.0
2017-Nov-18 13:29N 29°44' W 095°13'0 0.2
2017-Nov-18 13:00N 29°44' W 095°13'3 3.9
2017-Nov-18 12:11N 29°45' W 095°10'1 7.3
2017-Nov-18 12:00N 29°44' W 095°09'3 6.4
2017-Nov-18 11:29N 29°46' W 095°05'4 7.3
2017-Nov-18 11:00N 29°44' W 095°02'4 7.8
2017-Nov-18 10:30N 29°41' W 094°59'612.6
2017-Nov-18 10:00N 29°35' W 094°56'713.2
2017-Nov-18 09:30N 29°30' W 094°52'713.6
2017-Nov-18 09:00N 29°23' W 094°49'  

Dump ship's entire track history